sensor_id;sensor_type;location;lat;lon;timestamp;pressure;altitude;pressure_sealevel;temperature;humidity
23433;BME280;41331;45.412;10.992;2022-07-29T00:01:41;100722.00;;;24.17;65.43
23433;BME280;41331;45.412;10.992;2022-07-29T00:04:09;100718.09;;;24.11;64.83
23433;BME280;41331;45.412;10.992;2022-07-29T00:06:37;100724.41;;;24.15;65.70
23433;BME280;41331;45.412;10.992;2022-07-29T00:09:04;100715.66;;;24.17;66.32
23433;BME280;41331;45.412;10.992;2022-07-29T00:11:32;100718.31;;;24.27;65.51
23433;BME280;41331;45.412;10.992;2022-07-29T00:13:59;100714.63;;;24.38;65.16
23433;BME280;41331;45.412;10.992;2022-07-29T00:16:27;100716.34;;;24.24;65.66
23433;BME280;41331;45.412;10.992;2022-07-29T00:18:55;100709.16;;;24.27;66.57
23433;BME280;41331;45.412;10.992;2022-07-29T00:21:22;100701.38;;;24.15;67.18
23433;BME280;41331;45.412;10.992;2022-07-29T00:23:49;100710.09;;;24.17;67.13
23433;BME280;41331;45.412;10.992;2022-07-29T00:26:17;100712.78;;;24.24;67.27
23433;BME280;41331;45.412;10.992;2022-07-29T00:28:44;100715.44;;;24.35;66.19
23433;BME280;41331;45.412;10.992;2022-07-29T00:31:12;100717.38;;;24.41;64.87
23433;BME280;41331;45.412;10.992;2022-07-29T00:33:39;100721.16;;;24.54;64.01
23433;BME280;41331;45.412;10.992;2022-07-29T00:36:06;100714.03;;;24.53;64.45
23433;BME280;41331;45.412;10.992;2022-07-29T00:38:34;100712.94;;;24.47;65.26
23433;BME280;41331;45.412;10.992;2022-07-29T00:41:01;100703.19;;;24.63;65.57
23433;BME280;41331;45.412;10.992;2022-07-29T00:43:29;100697.16;;;24.68;67.21
23433;BME280;41331;45.412;10.992;2022-07-29T00:45:59;100681.94;;;24.76;66.03
23433;BME280;41331;45.412;10.992;2022-07-29T00:48:27;100697.84;;;24.75;66.57
23433;BME280;41331;45.412;10.992;2022-07-29T00:50:56;100698.72;;;24.69;66.70
23433;BME280;41331;45.412;10.992;2022-07-29T00:53:24;100699.81;;;24.75;66.59
23433;BME280;41331;45.412;10.992;2022-07-29T00:55:53;100701.03;;;24.74;66.80
23433;BME280;41331;45.412;10.992;2022-07-29T00:58:22;100703.88;;;24.70;64.86
23433;BME280;41331;45.412;10.992;2022-07-29T01:00:51;100711.56;;;24.59;65.61
23433;BME280;41331;45.412;10.992;2022-07-29T01:03:18;100707.00;;;24.45;66.29
23433;BME280;41331;45.412;10.992;2022-07-29T01:05:46;100694.81;;;24.32;65.61
23433;BME280;41331;45.412;10.992;2022-07-29T01:08:18;100695.16;;;24.34;66.12
23433;BME280;41331;45.412;10.992;2022-07-29T01:10:46;100701.47;;;24.42;66.47
23433;BME280;41331;45.412;10.992;2022-07-29T01:13:15;100699.94;;;24.34;66.92
23433;BME280;41331;45.412;10.992;2022-07-29T01:15:47;100692.59;;;24.20;68.10
23433;BME280;41331;45.412;10.992;2022-07-29T01:18:22;100686.16;;;24.23;68.51
23433;BME280;41331;45.412;10.992;2022-07-29T01:26:41;100688.97;;;24.19;69.75
23433;BME280;41331;45.412;10.992;2022-07-29T01:34:48;100701.78;;;24.13;69.60
23433;BME280;41331;45.412;10.992;2022-07-29T01:37:26;100687.34;;;23.91;72.06
23433;BME280;41331;45.412;10.992;2022-07-29T01:39:57;100692.88;;;23.95;72.02
23433;BME280;41331;45.412;10.992;2022-07-29T01:42:38;100693.69;;;23.92;72.30
23433;BME280;41331;45.412;10.992;2022-07-29T01:45:14;100694.25;;;23.72;72.67
23433;BME280;41331;45.412;10.992;2022-07-29T01:47:46;100691.34;;;23.87;71.52
23433;BME280;41331;45.412;10.992;2022-07-29T01:50:19;100690.28;;;23.73;71.46
23433;BME280;41331;45.412;10.992;2022-07-29T01:53:07;100691.78;;;23.85;73.08
23433;BME280;41331;45.412;10.992;2022-07-29T01:55:42;100691.81;;;23.78;72.92
23433;BME280;41331;45.412;10.992;2022-07-29T01:58:12;100688.41;;;23.63;72.32
23433;BME280;41331;45.412;10.992;2022-07-29T02:00:42;100696.00;;;23.56;71.83
23433;BME280;41331;45.412;10.992;2022-07-29T02:03:16;100690.88;;;23.50;73.72
23433;BME280;41331;45.412;10.992;2022-07-29T02:05:46;100702.31;;;23.60;73.33
23433;BME280;41331;45.412;10.992;2022-07-29T02:08:16;100688.81;;;23.58;76.25
23433;BME280;41331;45.412;10.992;2022-07-29T02:10:47;100691.38;;;23.38;75.78
23433;BME280;41331;45.412;10.992;2022-07-29T02:13:16;100693.66;;;23.50;74.87
23433;BME280;41331;45.412;10.992;2022-07-29T02:15:45;100699.16;;;23.54;74.75
23433;BME280;41331;45.412;10.992;2022-07-29T02:18:17;100697.34;;;23.37;76.62
23433;BME280;41331;45.412;10.992;2022-07-29T02:20:47;100698.16;;;23.34;77.91
23433;BME280;41331;45.412;10.992;2022-07-29T02:23:20;100699.75;;;23.35;77.08
23433;BME280;41331;45.412;10.992;2022-07-29T02:25:51;100693.09;;;23.25;77.30
23433;BME280;41331;45.412;10.992;2022-07-29T02:28:20;100698.97;;;23.31;78.23
23433;BME280;41331;45.412;10.992;2022-07-29T02:30:51;100698.56;;;23.32;79.15
23433;BME280;41331;45.412;10.992;2022-07-29T02:33:20;100693.38;;;23.34;80.54
23433;BME280;41331;45.412;10.992;2022-07-29T02:35:49;100695.34;;;23.37;79.90
23433;BME280;41331;45.412;10.992;2022-07-29T02:38:18;100701.56;;;23.56;79.34
23433;BME280;41331;45.412;10.992;2022-07-29T02:41:10;100708.38;;;23.44;79.80
23433;BME280;41331;45.412;10.992;2022-07-29T02:43:39;100705.00;;;23.22;81.66
23433;BME280;41331;45.412;10.992;2022-07-29T02:46:12;100699.84;;;23.20;81.25
23433;BME280;41331;45.412;10.992;2022-07-29T02:49:02;100695.44;;;23.26;81.57
23433;BME280;41331;45.412;10.992;2022-07-29T02:51:43;100704.56;;;23.27;80.59
23433;BME280;41331;45.412;10.992;2022-07-29T02:54:39;100701.44;;;23.18;80.04
23433;BME280;41331;45.412;10.992;2022-07-29T02:57:19;100704.66;;;23.13;80.30
23433;BME280;41331;45.412;10.992;2022-07-29T02:59:50;100708.13;;;23.24;80.53
23433;BME280;41331;45.412;10.992;2022-07-29T03:02:20;100706.28;;;23.07;80.36
23433;BME280;41331;45.412;10.992;2022-07-29T03:04:50;100702.38;;;23.00;80.89
23433;BME280;41331;45.412;10.992;2022-07-29T03:07:20;100710.28;;;23.02;81.40
23433;BME280;41331;45.412;10.992;2022-07-29T03:09:48;100706.75;;;22.98;81.66
23433;BME280;41331;45.412;10.992;2022-07-29T03:12:16;100709.44;;;23.09;81.43
23433;BME280;41331;45.412;10.992;2022-07-29T03:14:44;100697.63;;;22.94;81.28
23433;BME280;41331;45.412;10.992;2022-07-29T03:17:13;100703.19;;;22.94;81.51
23433;BME280;41331;45.412;10.992;2022-07-29T03:19:41;100704.00;;;22.87;82.68
23433;BME280;41331;45.412;10.992;2022-07-29T03:22:09;100705.06;;;23.15;80.91
23433;BME280;41331;45.412;10.992;2022-07-29T03:24:37;100699.50;;;23.15;80.27
23433;BME280;41331;45.412;10.992;2022-07-29T03:27:04;100694.06;;;22.93;82.17
23433;BME280;41331;45.412;10.992;2022-07-29T03:29:32;100692.81;;;23.05;80.67
23433;BME280;41331;45.412;10.992;2022-07-29T03:32:03;100695.63;;;22.98;83.11
23433;BME280;41331;45.412;10.992;2022-07-29T03:34:36;100699.88;;;23.13;82.13
23433;BME280;41331;45.412;10.992;2022-07-29T03:37:05;100697.09;;;23.17;81.80
23433;BME280;41331;45.412;10.992;2022-07-29T03:39:38;100700.31;;;23.12;82.43
23433;BME280;41331;45.412;10.992;2022-07-29T03:42:10;100711.34;;;23.22;81.20
23433;BME280;41331;45.412;10.992;2022-07-29T03:44:41;100703.00;;;23.22;81.91
23433;BME280;41331;45.412;10.992;2022-07-29T03:47:10;100702.97;;;23.30;82.46
23433;BME280;41331;45.412;10.992;2022-07-29T03:49:44;100698.19;;;23.30;83.02
23433;BME280;41331;45.412;10.992;2022-07-29T03:52:14;100708.56;;;23.19;83.46
23433;BME280;41331;45.412;10.992;2022-07-29T03:54:42;100702.31;;;23.08;84.44
23433;BME280;41331;45.412;10.992;2022-07-29T03:57:11;100705.97;;;22.94;84.82
23433;BME280;41331;45.412;10.992;2022-07-29T03:59:39;100707.94;;;22.93;85.87
23433;BME280;41331;45.412;10.992;2022-07-29T04:02:09;100709.06;;;23.10;84.60
23433;BME280;41331;45.412;10.992;2022-07-29T04:04:43;100708.19;;;23.20;83.05
23433;BME280;41331;45.412;10.992;2022-07-29T04:07:15;100701.44;;;23.18;83.22
23433;BME280;41331;45.412;10.992;2022-07-29T04:09:42;100705.53;;;22.99;84.27
23433;BME280;41331;45.412;10.992;2022-07-29T04:12:10;100703.97;;;22.98;85.05
23433;BME280;41331;45.412;10.992;2022-07-29T04:14:37;100711.06;;;23.03;84.80
23433;BME280;41331;45.412;10.992;2022-07-29T04:17:05;100707.16;;;22.93;84.99
23433;BME280;41331;45.412;10.992;2022-07-29T04:19:32;100716.63;;;23.03;83.97
23433;BME280;41331;45.412;10.992;2022-07-29T04:22:00;100722.88;;;23.17;83.39
23433;BME280;41331;45.412;10.992;2022-07-29T04:24:28;100725.66;;;23.17;83.98
23433;BME280;41331;45.412;10.992;2022-07-29T04:26:55;100737.97;;;23.13;84.68
23433;BME280;41331;45.412;10.992;2022-07-29T04:29:23;100739.59;;;23.07;87.05
23433;BME280;41331;45.412;10.992;2022-07-29T04:31:50;100753.41;;;23.17;86.76
23433;BME280;41331;45.412;10.992;2022-07-29T04:34:18;100741.84;;;23.30;86.46
23433;BME280;41331;45.412;10.992;2022-07-29T04:36:46;100742.94;;;23.39;85.53
23433;BME280;41331;45.412;10.992;2022-07-29T04:39:13;100744.53;;;23.40;83.49
23433;BME280;41331;45.412;10.992;2022-07-29T04:41:49;100738.88;;;23.51;82.09
23433;BME280;41331;45.412;10.992;2022-07-29T04:44:18;100743.66;;;23.50;82.71
23433;BME280;41331;45.412;10.992;2022-07-29T04:46:46;100744.88;;;23.49;82.33
23433;BME280;41331;45.412;10.992;2022-07-29T04:49:13;100745.25;;;23.48;82.02
23433;BME280;41331;45.412;10.992;2022-07-29T04:51:41;100755.56;;;23.51;81.45
23433;BME280;41331;45.412;10.992;2022-07-29T04:54:08;100759.16;;;23.44;81.69
23433;BME280;41331;45.412;10.992;2022-07-29T04:56:35;100763.91;;;23.47;80.49
23433;BME280;41331;45.412;10.992;2022-07-29T04:59:03;100768.66;;;23.50;80.84
23433;BME280;41331;45.412;10.992;2022-07-29T05:01:33;100769.81;;;23.53;80.69
23433;BME280;41331;45.412;10.992;2022-07-29T05:04:01;100767.75;;;23.68;79.32
23433;BME280;41331;45.412;10.992;2022-07-29T05:06:29;100776.78;;;23.79;78.17
23433;BME280;41331;45.412;10.992;2022-07-29T05:08:56;100776.50;;;23.59;78.58
23433;BME280;41331;45.412;10.992;2022-07-29T05:11:24;100781.38;;;23.48;76.63
23433;BME280;41331;45.412;10.992;2022-07-29T05:13:56;100791.16;;;23.70;76.82
23433;BME280;41331;45.412;10.992;2022-07-29T05:16:23;100785.84;;;23.87;75.22
23433;BME280;41331;45.412;10.992;2022-07-29T05:18:51;100784.16;;;24.00;74.74
23433;BME280;41331;45.412;10.992;2022-07-29T05:21:18;100786.75;;;24.18;72.07
23433;BME280;41331;45.412;10.992;2022-07-29T05:23:46;100795.09;;;24.14;72.15
23433;BME280;41331;45.412;10.992;2022-07-29T05:26:13;100795.91;;;24.15;71.54
23433;BME280;41331;45.412;10.992;2022-07-29T05:28:40;100785.50;;;24.22;69.74
23433;BME280;41331;45.412;10.992;2022-07-29T05:31:08;100784.41;;;24.13;73.09
23433;BME280;41331;45.412;10.992;2022-07-29T05:33:35;100791.50;;;24.17;72.58
23433;BME280;41331;45.412;10.992;2022-07-29T05:36:06;100787.59;;;24.15;71.13
23433;BME280;41331;45.412;10.992;2022-07-29T05:38:35;100788.00;;;24.10;70.81
23433;BME280;41331;45.412;10.992;2022-07-29T05:41:03;100792.28;;;24.18;71.14
23433;BME280;41331;45.412;10.992;2022-07-29T05:43:31;100782.56;;;24.40;70.01
23433;BME280;41331;45.412;10.992;2022-07-29T05:45:59;100797.47;;;24.57;69.26
23433;BME280;41331;45.412;10.992;2022-07-29T05:48:27;100793.06;;;24.60;70.82
23433;BME280;41331;45.412;10.992;2022-07-29T05:50:54;100786.31;;;24.61;69.58
23433;BME280;41331;45.412;10.992;2022-07-29T05:53:22;100789.75;;;24.72;67.48
23433;BME280;41331;45.412;10.992;2022-07-29T05:55:50;100778.50;;;24.79;70.33
23433;BME280;41331;45.412;10.992;2022-07-29T05:58:17;100785.25;;;24.82;66.65
23433;BME280;41331;45.412;10.992;2022-07-29T06:00:45;100784.69;;;24.94;67.91
23433;BME280;41331;45.412;10.992;2022-07-29T06:03:12;100784.00;;;24.86;67.42
23433;BME280;41331;45.412;10.992;2022-07-29T06:05:39;100785.00;;;24.99;67.50
23433;BME280;41331;45.412;10.992;2022-07-29T06:08:07;100783.25;;;25.13;68.03
23433;BME280;41331;45.412;10.992;2022-07-29T06:10:35;100790.66;;;25.23;67.81
23433;BME280;41331;45.412;10.992;2022-07-29T06:13:02;100791.47;;;25.23;67.10
23433;BME280;41331;45.412;10.992;2022-07-29T06:15:30;100788.19;;;25.28;67.96
23433;BME280;41331;45.412;10.992;2022-07-29T06:17:57;100788.03;;;25.39;68.07
23433;BME280;41331;45.412;10.992;2022-07-29T06:20:28;100772.47;;;25.65;66.60
23433;BME280;41331;45.412;10.992;2022-07-29T06:22:58;100777.09;;;25.52;69.96
23433;BME280;41331;45.412;10.992;2022-07-29T06:25:28;100772.88;;;25.67;67.64
23433;BME280;41331;45.412;10.992;2022-07-29T06:27:57;100773.16;;;25.73;67.55
23433;BME280;41331;45.412;10.992;2022-07-29T06:30:24;100771.75;;;25.88;64.45
23433;BME280;41331;45.412;10.992;2022-07-29T06:32:52;100773.69;;;25.91;64.40
23433;BME280;41331;45.412;10.992;2022-07-29T06:35:20;100781.63;;;25.93;66.67
23433;BME280;41331;45.412;10.992;2022-07-29T06:38:07;100773.63;;;26.15;64.47
23433;BME280;41331;45.412;10.992;2022-07-29T06:40:57;100786.25;;;26.23;66.12
23433;BME280;41331;45.412;10.992;2022-07-29T06:43:32;100783.19;;;26.37;64.82
23433;BME280;41331;45.412;10.992;2022-07-29T06:46:02;100781.69;;;26.92;62.36
23433;BME280;41331;45.412;10.992;2022-07-29T06:48:31;100782.13;;;27.27;61.67
23433;BME280;41331;45.412;10.992;2022-07-29T06:50:59;100769.97;;;27.66;60.46
23433;BME280;41331;45.412;10.992;2022-07-29T06:53:27;100784.88;;;27.47;60.62
23433;BME280;41331;45.412;10.992;2022-07-29T06:55:57;100776.03;;;27.97;59.48
23433;BME280;41331;45.412;10.992;2022-07-29T06:58:27;100788.28;;;27.87;59.92
23433;BME280;41331;45.412;10.992;2022-07-29T07:00:56;100794.03;;;27.63;56.38
23433;BME280;41331;45.412;10.992;2022-07-29T07:03:24;100796.25;;;28.34;56.66
23433;BME280;41331;45.412;10.992;2022-07-29T07:05:52;100799.44;;;28.49;54.66
23433;BME280;41331;45.412;10.992;2022-07-29T07:08:21;100797.88;;;27.86;55.85
23433;BME280;41331;45.412;10.992;2022-07-29T07:10:50;100802.75;;;27.66;56.99
23433;BME280;41331;45.412;10.992;2022-07-29T07:13:17;100804.75;;;27.32;59.08
23433;BME280;41331;45.412;10.992;2022-07-29T07:15:45;100809.50;;;27.68;55.89
23433;BME280;41331;45.412;10.992;2022-07-29T07:18:15;100804.53;;;27.76;56.07
23433;BME280;41331;45.412;10.992;2022-07-29T07:20:45;100805.13;;;28.00;57.95
23433;BME280;41331;45.412;10.992;2022-07-29T07:23:13;100810.44;;;28.10;56.99
23433;BME280;41331;45.412;10.992;2022-07-29T07:25:40;100807.25;;;28.25;55.94
23433;BME280;41331;45.412;10.992;2022-07-29T07:28:07;100804.50;;;28.67;55.08
23433;BME280;41331;45.412;10.992;2022-07-29T07:30:35;100809.78;;;28.64;53.70
23433;BME280;41331;45.412;10.992;2022-07-29T07:33:05;100798.13;;;28.53;52.81
23433;BME280;41331;45.412;10.992;2022-07-29T07:35:35;100808.38;;;28.85;51.51
23433;BME280;41331;45.412;10.992;2022-07-29T07:38:03;100810.56;;;29.20;51.20
23433;BME280;41331;45.412;10.992;2022-07-29T07:40:31;100811.16;;;29.27;50.98
23433;BME280;41331;45.412;10.992;2022-07-29T07:42:59;100816.06;;;29.10;51.86
23433;BME280;41331;45.412;10.992;2022-07-29T07:45:27;100817.94;;;29.01;50.51
23433;BME280;41331;45.412;10.992;2022-07-29T07:47:55;100816.16;;;28.36;55.46
23433;BME280;41331;45.412;10.992;2022-07-29T07:50:23;100812.00;;;28.57;54.81
23433;BME280;41331;45.412;10.992;2022-07-29T07:52:52;100801.06;;;28.62;53.50
23433;BME280;41331;45.412;10.992;2022-07-29T07:55:20;100803.31;;;28.80;50.55
23433;BME280;41331;45.412;10.992;2022-07-29T07:57:48;100802.94;;;29.20;52.25
23433;BME280;41331;45.412;10.992;2022-07-29T08:00:17;100792.97;;;29.45;48.43
23433;BME280;41331;45.412;10.992;2022-07-29T08:02:44;100788.81;;;29.49;47.13
23433;BME280;41331;45.412;10.992;2022-07-29T08:05:12;100785.69;;;29.60;47.12
23433;BME280;41331;45.412;10.992;2022-07-29T08:07:45;100777.59;;;29.62;47.21
23433;BME280;41331;45.412;10.992;2022-07-29T08:10:14;100775.28;;;29.95;47.52
23433;BME280;41331;45.412;10.992;2022-07-29T08:12:43;100779.25;;;30.20;46.58
23433;BME280;41331;45.412;10.992;2022-07-29T08:15:11;100772.78;;;30.32;46.38
23433;BME280;41331;45.412;10.992;2022-07-29T08:17:38;100774.06;;;30.53;46.06
23433;BME280;41331;45.412;10.992;2022-07-29T08:20:06;100770.66;;;30.80;45.58
23433;BME280;41331;45.412;10.992;2022-07-29T08:22:33;100768.47;;;30.62;48.20
23433;BME280;41331;45.412;10.992;2022-07-29T08:25:00;100778.09;;;30.30;48.52
23433;BME280;41331;45.412;10.992;2022-07-29T08:27:28;100778.34;;;30.44;46.55
23433;BME280;41331;45.412;10.992;2022-07-29T08:30:10;100768.44;;;30.53;48.47
23433;BME280;41331;45.412;10.992;2022-07-29T08:32:37;100773.53;;;30.45;46.58
23433;BME280;41331;45.412;10.992;2022-07-29T08:35:23;100760.91;;;30.72;45.83
23433;BME280;41331;45.412;10.992;2022-07-29T08:37:51;100762.97;;;31.11;44.37
23433;BME280;41331;45.412;10.992;2022-07-29T08:40:20;100766.38;;;31.28;43.98
23433;BME280;41331;45.412;10.992;2022-07-29T08:43:04;100761.44;;;31.60;43.56
23433;BME280;41331;45.412;10.992;2022-07-29T08:45:45;100758.91;;;31.43;43.95
23433;BME280;41331;45.412;10.992;2022-07-29T08:48:16;100766.03;;;31.26;43.52
23433;BME280;41331;45.412;10.992;2022-07-29T08:50:44;100765.19;;;31.16;43.54
23433;BME280;41331;45.412;10.992;2022-07-29T08:53:17;100760.94;;;31.12;43.88
23433;BME280;41331;45.412;10.992;2022-07-29T08:55:48;100759.34;;;31.42;43.33
23433;BME280;41331;45.412;10.992;2022-07-29T08:58:17;100759.09;;;31.77;42.50
23433;BME280;41331;45.412;10.992;2022-07-29T09:00:52;100764.00;;;32.04;41.28
23433;BME280;41331;45.412;10.992;2022-07-29T09:03:29;100759.28;;;31.82;40.93
23433;BME280;41331;45.412;10.992;2022-07-29T09:05:58;100762.91;;;32.01;41.45
23433;BME280;41331;45.412;10.992;2022-07-29T09:08:33;100762.72;;;32.23;41.42
23433;BME280;41331;45.412;10.992;2022-07-29T09:11:01;100767.28;;;32.02;42.42
23433;BME280;41331;45.412;10.992;2022-07-29T09:13:31;100764.00;;;32.22;41.47
23433;BME280;41331;45.412;10.992;2022-07-29T09:15:59;100761.31;;;32.55;41.20
23433;BME280;41331;45.412;10.992;2022-07-29T09:18:38;100752.38;;;32.57;41.28
23433;BME280;41331;45.412;10.992;2022-07-29T09:21:08;100749.06;;;32.67;42.43
23433;BME280;41331;45.412;10.992;2022-07-29T09:26:31;100739.16;;;32.90;42.13
23433;BME280;41331;45.412;10.992;2022-07-29T09:28:59;100734.53;;;32.69;41.60
23433;BME280;41331;45.412;10.992;2022-07-29T09:31:34;100732.75;;;32.90;41.15
23433;BME280;41331;45.412;10.992;2022-07-29T09:34:03;100725.22;;;32.96;39.67
23433;BME280;41331;45.412;10.992;2022-07-29T09:36:38;100729.97;;;32.71;40.50
23433;BME280;41331;45.412;10.992;2022-07-29T09:39:06;100727.13;;;32.90;39.72
23433;BME280;41331;45.412;10.992;2022-07-29T09:41:48;100729.47;;;33.24;39.94
23433;BME280;41331;45.412;10.992;2022-07-29T09:44:16;100733.22;;;33.21;40.02
23433;BME280;41331;45.412;10.992;2022-07-29T09:47:01;100734.44;;;32.96;38.24
23433;BME280;41331;45.412;10.992;2022-07-29T09:49:53;100731.75;;;33.02;39.40
23433;BME280;41331;45.412;10.992;2022-07-29T09:52:22;100733.13;;;33.40;39.73
23433;BME280;41331;45.412;10.992;2022-07-29T09:54:50;100729.81;;;32.75;39.15
23433;BME280;41331;45.412;10.992;2022-07-29T09:57:28;100734.72;;;32.56;39.93
23433;BME280;41331;45.412;10.992;2022-07-29T10:00:19;100720.78;;;33.04;40.95
23433;BME280;41331;45.412;10.992;2022-07-29T10:02:47;100731.50;;;33.24;41.09
23433;BME280;41331;45.412;10.992;2022-07-29T10:05:25;100723.66;;;32.95;41.30
23433;BME280;41331;45.412;10.992;2022-07-29T10:08:03;100721.28;;;33.27;40.55
23433;BME280;41331;45.412;10.992;2022-07-29T10:10:36;100720.22;;;33.24;38.91
23433;BME280;41331;45.412;10.992;2022-07-29T10:13:06;100726.13;;;33.59;39.12
23433;BME280;41331;45.412;10.992;2022-07-29T10:15:42;100732.19;;;33.43;39.17
23433;BME280;41331;45.412;10.992;2022-07-29T10:18:13;100716.69;;;33.62;37.78
23433;BME280;41331;45.412;10.992;2022-07-29T10:20:45;100720.72;;;33.70;39.58
23433;BME280;41331;45.412;10.992;2022-07-29T10:23:13;100729.47;;;33.96;37.60
23433;BME280;41331;45.412;10.992;2022-07-29T10:25:41;100716.13;;;33.25;39.78
23433;BME280;41331;45.412;10.992;2022-07-29T10:28:12;100712.53;;;33.24;37.61
23433;BME280;41331;45.412;10.992;2022-07-29T10:30:44;100708.00;;;32.85;39.59
23433;BME280;41331;45.412;10.992;2022-07-29T10:36:40;100714.38;;;33.28;39.62
23433;BME280;41331;45.412;10.992;2022-07-29T10:39:17;100710.97;;;33.71;39.36
23433;BME280;41331;45.412;10.992;2022-07-29T10:42:02;100705.75;;;33.79;39.09
23433;BME280;41331;45.412;10.992;2022-07-29T10:44:35;100704.59;;;33.86;38.52
23433;BME280;41331;45.412;10.992;2022-07-29T10:47:06;100704.56;;;34.10;38.33
23433;BME280;41331;45.412;10.992;2022-07-29T10:49:34;100703.28;;;33.96;38.38
23433;BME280;41331;45.412;10.992;2022-07-29T10:52:02;100703.50;;;33.83;38.51
23433;BME280;41331;45.412;10.992;2022-07-29T10:57:17;100689.59;;;33.80;38.38
23433;BME280;41331;45.412;10.992;2022-07-29T11:02:42;100681.88;;;33.65;39.40
23433;BME280;41331;45.412;10.992;2022-07-29T11:05:18;100689.97;;;33.48;38.78
23433;BME280;41331;45.412;10.992;2022-07-29T11:10:48;100679.03;;;34.19;37.83
23433;BME280;41331;45.412;10.992;2022-07-29T11:16:14;100662.50;;;34.26;39.20
23433;BME280;41331;45.412;10.992;2022-07-29T11:21:41;100656.47;;;34.84;36.80
23433;BME280;41331;45.412;10.992;2022-07-29T11:24:23;100656.44;;;34.63;37.27
23433;BME280;41331;45.412;10.992;2022-07-29T11:27:31;100660.63;;;34.68;36.98
23433;BME280;41331;45.412;10.992;2022-07-29T11:30:07;100659.72;;;34.76;37.06
23433;BME280;41331;45.412;10.992;2022-07-29T11:32:36;100660.69;;;34.73;36.01
23433;BME280;41331;45.412;10.992;2022-07-29T11:38:26;100665.66;;;33.90;37.85
23433;BME280;41331;45.412;10.992;2022-07-29T11:43:53;100659.28;;;33.65;38.48
23433;BME280;41331;45.412;10.992;2022-07-29T11:46:46;100656.19;;;33.78;37.59
23433;BME280;41331;45.412;10.992;2022-07-29T11:49:24;100658.13;;;34.11;37.04
23433;BME280;41331;45.412;10.992;2022-07-29T11:52:00;100651.88;;;34.51;35.82
23433;BME280;41331;45.412;10.992;2022-07-29T11:54:33;100656.34;;;33.98;37.31
23433;BME280;41331;45.412;10.992;2022-07-29T11:57:21;100650.91;;;34.39;37.30
23433;BME280;41331;45.412;10.992;2022-07-29T11:59:49;100641.00;;;34.79;35.96
23433;BME280;41331;45.412;10.992;2022-07-29T12:02:17;100645.72;;;34.67;36.79
23433;BME280;41331;45.412;10.992;2022-07-29T12:05:04;100641.63;;;35.03;36.02
23433;BME280;41331;45.412;10.992;2022-07-29T12:07:38;100632.03;;;34.95;35.79
23433;BME280;41331;45.412;10.992;2022-07-29T12:10:11;100638.03;;;35.03;36.89
23433;BME280;41331;45.412;10.992;2022-07-29T12:12:51;100636.41;;;35.17;36.63
23433;BME280;41331;45.412;10.992;2022-07-29T12:15:20;100633.16;;;35.24;36.29
23433;BME280;41331;45.412;10.992;2022-07-29T12:17:48;100642.13;;;35.22;35.88
23433;BME280;41331;45.412;10.992;2022-07-29T12:20:26;100641.16;;;35.25;35.02
23433;BME280;41331;45.412;10.992;2022-07-29T12:22:56;100628.63;;;35.12;35.42
23433;BME280;41331;45.412;10.992;2022-07-29T12:25:23;100634.59;;;34.64;37.30
23433;BME280;41331;45.412;10.992;2022-07-29T12:28:04;100626.84;;;34.79;36.15
23433;BME280;41331;45.412;10.992;2022-07-29T12:30:47;100623.97;;;34.94;35.49
23433;BME280;41331;45.412;10.992;2022-07-29T12:35:54;100623.03;;;34.62;36.78
23433;BME280;41331;45.412;10.992;2022-07-29T12:38:36;100611.22;;;34.63;36.71
23433;BME280;41331;45.412;10.992;2022-07-29T12:41:07;100615.81;;;34.96;36.59
23433;BME280;41331;45.412;10.992;2022-07-29T12:43:34;100608.97;;;34.67;36.73
23433;BME280;41331;45.412;10.992;2022-07-29T12:46:15;100604.47;;;34.75;37.31
23433;BME280;41331;45.412;10.992;2022-07-29T12:48:44;100602.81;;;35.04;36.53
23433;BME280;41331;45.412;10.992;2022-07-29T12:51:12;100603.38;;;35.08;36.36
23433;BME280;41331;45.412;10.992;2022-07-29T12:53:41;100608.34;;;34.78;36.35
23433;BME280;41331;45.412;10.992;2022-07-29T12:56:28;100609.38;;;34.60;36.14
23433;BME280;41331;45.412;10.992;2022-07-29T12:59:22;100608.00;;;35.06;35.89
23433;BME280;41331;45.412;10.992;2022-07-29T13:01:51;100595.19;;;35.10;36.08
23433;BME280;41331;45.412;10.992;2022-07-29T13:04:29;100594.19;;;35.13;36.18
23433;BME280;41331;45.412;10.992;2022-07-29T13:07:07;100594.75;;;35.17;36.25
23433;BME280;41331;45.412;10.992;2022-07-29T13:09:45;100583.94;;;35.16;36.31
23433;BME280;41331;45.412;10.992;2022-07-29T13:12:15;100585.00;;;35.18;35.28
23433;BME280;41331;45.412;10.992;2022-07-29T13:14:47;100583.25;;;34.65;35.53
23433;BME280;41331;45.412;10.992;2022-07-29T13:17:22;100568.63;;;34.67;35.82
23433;BME280;41331;45.412;10.992;2022-07-29T13:19:52;100561.66;;;34.33;35.66
23433;BME280;41331;45.412;10.992;2022-07-29T13:22:21;100549.91;;;34.34;35.89
23433;BME280;41331;45.412;10.992;2022-07-29T13:24:56;100545.88;;;34.56;35.55
23433;BME280;41331;45.412;10.992;2022-07-29T13:27:27;100546.34;;;34.54;34.94
23433;BME280;41331;45.412;10.992;2022-07-29T13:29:57;100544.03;;;34.93;35.65
23433;BME280;41331;45.412;10.992;2022-07-29T13:32:28;100540.06;;;35.00;34.81
23433;BME280;41331;45.412;10.992;2022-07-29T13:34:57;100539.09;;;35.09;34.77
23433;BME280;41331;45.412;10.992;2022-07-29T13:37:25;100537.22;;;35.00;35.45
23433;BME280;41331;45.412;10.992;2022-07-29T13:39:53;100521.22;;;34.56;34.36
23433;BME280;41331;45.412;10.992;2022-07-29T13:42:22;100525.31;;;34.40;36.15